createdAt,value
2019-05-29T00:02:46.542Z,99.90
2019-05-29T00:05:35.517Z,99.90
2019-05-29T00:08:25.186Z,99.90
2019-05-29T00:11:14.375Z,99.90
2019-05-29T00:14:17.876Z,99.90
2019-05-29T00:16:53.761Z,99.90
2019-05-29T00:19:42.675Z,99.90
2019-05-29T00:22:31.791Z,99.90
2019-05-29T00:25:21.219Z,99.90
2019-05-29T00:28:10.594Z,99.90
2019-05-29T00:31:00.372Z,99.90
2019-05-29T00:33:49.197Z,99.90
2019-05-29T00:36:38.290Z,99.90
2019-05-29T00:39:27.257Z,99.90
2019-05-29T00:42:17.455Z,99.90
2019-05-29T00:45:09.681Z,99.90
2019-05-29T00:47:59.278Z,99.90
2019-05-29T00:50:48.634Z,99.90
2019-05-29T00:53:37.030Z,99.90
2019-05-29T00:56:26.562Z,99.90
2019-05-29T00:59:17.294Z,99.90
2019-05-29T01:02:07.146Z,99.90
2019-05-29T01:04:56.831Z,99.90
2019-05-29T01:07:45.951Z,99.90
2019-05-29T01:10:35.569Z,99.90
2019-05-29T01:13:24.837Z,99.90
2019-05-29T01:16:14.105Z,99.90
2019-05-29T01:19:22.185Z,99.90
2019-05-29T01:22:12.315Z,99.90
2019-05-29T01:25:01.984Z,99.90
2019-05-29T01:27:51.407Z,99.90
2019-05-29T01:30:41.041Z,99.90
2019-05-29T01:33:30.286Z,99.90
2019-05-29T05:48:50.917Z,94.60
2019-05-29T05:51:44.197Z,93.90
2019-05-29T05:54:31.340Z,95.50
2019-05-29T05:57:20.619Z,98.20
2019-05-29T06:00:12.781Z,99.90
2019-05-29T06:03:02.058Z,99.90
2019-05-29T06:05:51.624Z,99.90
2019-05-29T06:08:40.924Z,99.90
2019-05-29T06:11:29.749Z,99.90
2019-05-29T06:14:18.465Z,99.90
2019-05-29T06:17:07.881Z,99.90
2019-05-29T06:19:56.969Z,99.90
2019-05-29T06:22:45.905Z,99.90
2019-05-29T06:25:36.855Z,99.90
2019-05-29T06:28:25.168Z,99.70
2019-05-29T06:31:14.429Z,99.50
2019-05-29T06:34:03.920Z,99.90
2019-05-29T06:36:53.186Z,99.90
2019-05-29T06:39:42.429Z,99.90
2019-05-29T06:42:31.172Z,99.40
2019-05-29T06:45:22.981Z,97.90
2019-05-29T06:48:14.167Z,96.30
2019-05-29T06:51:02.099Z,95.80
2019-05-29T06:53:50.118Z,96.20
2019-05-29T06:56:39.665Z,94.80
2019-05-29T06:59:28.051Z,94.50
2019-05-29T07:02:16.509Z,94.10
2019-05-29T07:05:05.735Z,93.60
2019-05-29T07:07:54.736Z,93.70
2019-05-29T07:10:44.480Z,94.20
2019-05-29T07:13:35.155Z,94.90
2019-05-29T07:16:22.755Z,97.30
2019-05-29T07:19:25.563Z,97.50
2019-05-29T07:22:02.461Z,99.20
2019-05-29T07:24:52.904Z,99.90
2019-05-29T07:27:43.510Z,98.70
2019-05-29T07:30:32.761Z,99.60
2019-05-29T07:33:21.539Z,99.90
2019-05-29T07:36:10.889Z,99.90
2019-05-29T07:39:03.649Z,99.90
2019-05-29T07:41:51.084Z,99.90
2019-05-29T07:44:40.222Z,99.90
2019-05-29T07:47:29.547Z,99.90
2019-05-29T07:50:18.931Z,99.90
2019-05-29T07:53:08.473Z,99.90
2019-05-29T07:57:10.793Z,99.90
2019-05-29T07:59:59.587Z,99.90
2019-05-29T08:02:49.510Z,99.90
2019-05-29T08:05:39.255Z,99.90
2019-05-29T08:08:28.075Z,99.90
2019-05-29T08:11:17.000Z,99.90
2019-05-29T08:14:06.058Z,99.90
2019-05-29T08:16:55.429Z,99.90
2019-05-29T08:19:59.317Z,99.90
2019-05-29T08:22:36.130Z,99.90
2019-05-29T08:25:25.710Z,99.90
2019-05-29T08:28:14.582Z,99.90
2019-05-29T08:31:03.930Z,99.90
2019-05-29T08:33:53.020Z,99.90
2019-05-29T08:36:59.991Z,99.90
2019-05-29T08:39:36.851Z,99.90
2019-05-29T08:42:24.090Z,99.90
2019-05-29T08:45:13.074Z,99.90
2019-05-29T08:48:03.236Z,99.90
2019-05-29T08:50:52.371Z,99.90
2019-05-29T08:53:42.522Z,99.90
2019-05-29T08:56:32.576Z,99.90
2019-05-29T08:59:21.755Z,99.90
2019-05-29T09:02:11.231Z,99.90
2019-05-29T09:05:00.227Z,99.90
2019-05-29T09:07:51.900Z,99.90
2019-05-29T09:10:40.656Z,99.90
2019-05-29T09:13:29.521Z,99.90
2019-05-29T09:16:18.448Z,99.90
2019-05-29T09:19:07.805Z,99.90
2019-05-29T09:21:57.116Z,99.90
2019-05-29T09:24:46.398Z,99.90
2019-05-29T09:27:35.790Z,99.90
2019-05-29T09:30:25.056Z,99.90
2019-05-29T09:33:16.264Z,99.90
2019-05-29T09:36:05.012Z,99.90
2019-05-29T09:38:54.299Z,99.90
2019-05-29T09:41:43.347Z,99.90
2019-05-29T09:44:38.772Z,99.90
2019-05-29T09:47:24.271Z,99.90
2019-05-29T09:50:15.613Z,99.90
2019-05-29T09:53:05.862Z,99.90
2019-05-29T09:55:57.283Z,99.90
2019-05-29T09:58:46.296Z,99.90
2019-05-29T10:01:36.392Z,99.90
2019-05-29T10:04:25.538Z,99.90
2019-05-29T10:07:14.655Z,99.90
2019-05-29T10:10:05.161Z,99.90
2019-05-29T10:12:56.386Z,99.90
2019-05-29T10:15:46.309Z,99.90
2019-05-29T10:18:35.338Z,99.90
2019-05-29T10:21:38.650Z,99.90
2019-05-29T10:24:15.726Z,99.90
2019-05-29T10:27:06.227Z,99.90
2019-05-29T10:29:55.362Z,99.90
2019-05-29T10:32:44.659Z,99.90
2019-05-29T10:35:35.320Z,99.90
2019-05-29T10:38:23.996Z,99.90
2019-05-29T10:41:12.660Z,99.90
2019-05-29T10:44:01.611Z,99.90
2019-05-29T10:46:51.977Z,99.90
2019-05-29T10:49:41.185Z,99.90
2019-05-29T10:52:30.527Z,99.90
2019-05-29T10:55:23.203Z,99.90
2019-05-29T10:58:11.864Z,99.90
2019-05-29T11:01:00.884Z,99.90
2019-05-29T11:03:52.308Z,99.90
2019-05-29T11:06:41.365Z,99.90
2019-05-29T11:09:43.990Z,99.90
2019-05-29T11:12:21.689Z,99.90
2019-05-29T11:15:21.236Z,99.90
2019-05-29T11:18:02.389Z,99.90
2019-05-29T11:20:51.842Z,99.90
2019-05-29T11:23:40.882Z,99.90
2019-05-29T11:26:30.504Z,99.90
2019-05-29T11:29:20.271Z,99.90
2019-05-29T11:32:08.967Z,99.90
2019-05-29T11:34:59.582Z,99.90
2019-05-29T11:37:50.275Z,99.90
2019-05-29T11:40:40.347Z,99.90
2019-05-29T11:43:29.858Z,99.90
2019-05-29T11:46:19.390Z,99.90
2019-05-29T11:49:08.631Z,99.90
2019-05-29T11:52:19.642Z,99.90
2019-05-29T11:54:47.890Z,99.90
2019-05-29T11:57:39.562Z,99.90
2019-05-29T12:00:28.382Z,99.90
2019-05-29T12:03:16.935Z,99.90
2019-05-29T12:06:07.011Z,99.90
2019-05-29T12:08:57.924Z,99.90
2019-05-29T12:11:48.012Z,99.90
2019-05-29T12:14:58.270Z,99.90
2019-05-29T12:17:27.881Z,99.90
2019-05-29T12:20:27.718Z,99.90
2019-05-29T12:23:24.156Z,99.90
2019-05-29T12:26:16.561Z,99.90
2019-05-29T12:28:48.720Z,99.90
2019-05-29T12:31:37.720Z,99.90
2019-05-29T12:34:26.907Z,99.90
2019-05-29T12:37:16.461Z,99.90
2019-05-29T12:40:10.459Z,99.90
2019-05-29T12:43:00.120Z,99.90
2019-05-29T12:45:49.515Z,99.90
2019-05-29T12:48:38.765Z,99.90
2019-05-29T12:51:27.721Z,99.90
2019-05-29T12:54:17.178Z,99.90
2019-05-29T12:57:06.250Z,99.90
2019-05-29T12:59:55.899Z,99.90
2019-05-29T13:02:44.913Z,99.90
2019-05-29T13:05:34.265Z,99.90
2019-05-29T13:08:23.822Z,99.90
2019-05-29T13:11:13.215Z,99.90
2019-05-29T13:14:02.697Z,99.90
2019-05-29T13:16:52.473Z,99.90
2019-05-29T13:19:41.429Z,99.90
2019-05-29T13:22:30.702Z,99.90
2019-05-29T13:25:20.067Z,99.90
2019-05-29T13:28:09.239Z,99.90
2019-05-29T13:30:59.781Z,99.90
2019-05-29T13:33:49.024Z,99.90
2019-05-29T13:36:37.571Z,99.90
2019-05-29T13:39:29.780Z,99.90
2019-05-29T13:42:17.945Z,99.90
2019-05-29T13:45:17.697Z,99.90
2019-05-29T13:48:01.199Z,99.90
2019-05-29T13:50:50.250Z,99.90
2019-05-29T13:53:39.729Z,99.90
2019-05-29T13:56:28.758Z,99.90
2019-05-29T13:59:18.160Z,99.90
2019-05-29T14:02:08.701Z,99.90
2019-05-29T14:04:58.342Z,99.90
2019-05-29T14:07:48.028Z,99.90
2019-05-29T14:10:36.892Z,99.90
2019-05-29T14:13:25.802Z,99.90
2019-05-29T14:16:15.534Z,99.90
2019-05-29T14:19:04.857Z,99.90
2019-05-29T14:21:54.268Z,99.90
2019-05-29T14:24:43.649Z,99.90
2019-05-29T14:27:33.247Z,99.90
2019-05-29T14:30:23.408Z,99.90
2019-05-29T14:33:14.699Z,99.90
2019-05-29T14:36:03.576Z,99.90
2019-05-29T14:38:53.159Z,99.90
2019-05-29T14:41:42.384Z,99.90
2019-05-29T14:44:31.813Z,99.90
2019-05-29T14:47:20.899Z,99.90
2019-05-29T14:50:12.868Z,99.90
2019-05-29T14:53:02.875Z,99.90
2019-05-29T14:55:52.781Z,99.90
2019-05-29T14:58:41.853Z,99.90
2019-05-29T15:01:31.210Z,99.90
2019-05-29T15:04:20.071Z,99.90
2019-05-29T15:07:09.823Z,99.90
2019-05-29T15:09:59.771Z,99.90
2019-05-29T15:12:48.568Z,99.90
2019-05-29T15:15:38.382Z,99.90
2019-05-29T15:18:27.602Z,99.90
2019-05-29T15:21:16.713Z,99.90
2019-05-29T15:24:07.301Z,99.90
2019-05-29T15:26:57.022Z,99.90
2019-05-29T15:29:45.945Z,99.90
2019-05-29T15:32:35.840Z,99.90
2019-05-29T15:35:25.207Z,99.90
2019-05-29T15:38:14.861Z,99.90
2019-05-29T15:41:04.772Z,99.90
2019-05-29T15:43:54.135Z,99.90
2019-05-29T15:46:42.898Z,99.90
2019-05-29T15:49:31.871Z,99.90
2019-05-29T15:52:21.548Z,99.90
2019-05-29T15:55:24.577Z,99.90
2019-05-29T15:58:02.989Z,99.90
2019-05-29T16:00:52.653Z,99.90
2019-05-29T16:03:42.007Z,99.90
2019-05-29T16:06:31.169Z,99.90
2019-05-29T16:09:20.543Z,99.90
2019-05-29T16:12:10.505Z,99.90
2019-05-29T16:14:59.578Z,99.90
2019-05-29T16:17:48.876Z,99.90
2019-05-29T16:20:37.956Z,99.90
2019-05-29T16:23:35.041Z,99.90
2019-05-29T16:26:19.916Z,99.90
2019-05-29T16:29:08.578Z,99.90
2019-05-29T16:31:57.373Z,99.90
2019-05-29T16:34:45.929Z,99.90
2019-05-29T16:37:34.628Z,99.90
2019-05-29T16:40:25.259Z,99.90
2019-05-29T16:43:15.975Z,99.90
2019-05-29T16:46:05.122Z,99.90
2019-05-29T16:48:54.628Z,99.90
2019-05-29T16:51:44.491Z,99.70
2019-05-29T16:54:33.677Z,99.00
2019-05-29T16:57:23.457Z,99.00
2019-05-29T17:00:15.661Z,98.80
2019-05-29T17:03:06.305Z,98.60
2019-05-29T17:05:55.033Z,99.60
2019-05-29T17:08:44.209Z,99.30
2019-05-29T17:11:33.485Z,99.90
2019-05-29T17:14:22.913Z,99.90
2019-05-29T17:17:12.616Z,99.90
2019-05-29T17:20:02.848Z,99.90
2019-05-29T17:22:51.892Z,99.90
2019-05-29T17:25:41.589Z,99.90
2019-05-29T17:28:30.979Z,99.90
2019-05-29T17:31:22.948Z,99.90
2019-05-29T17:34:12.134Z,99.60
2019-05-29T17:37:00.947Z,99.70
2019-05-29T17:39:49.752Z,99.80
2019-05-29T17:42:39.252Z,99.50
2019-05-29T17:45:28.201Z,99.50
2019-05-29T17:48:17.571Z,99.90
2019-05-29T17:51:07.246Z,99.90
2019-05-29T17:53:56.468Z,99.90
2019-05-29T17:56:45.706Z,99.90
2019-05-29T17:59:35.061Z,99.90
2019-05-29T18:02:24.562Z,99.90
2019-05-29T18:05:16.411Z,99.90
2019-05-29T18:08:06.055Z,99.90
2019-05-29T18:10:55.303Z,99.90
2019-05-29T18:13:44.169Z,99.90
2019-05-29T18:16:33.241Z,99.90
2019-05-29T18:19:23.691Z,99.90
2019-05-29T18:22:13.069Z,99.90
2019-05-29T18:25:02.374Z,99.90
2019-05-29T18:27:51.179Z,99.90
2019-05-29T18:30:40.608Z,99.90
2019-05-29T18:33:29.715Z,99.90
2019-05-29T18:36:18.913Z,99.90
2019-05-29T18:39:09.120Z,99.90
2019-05-29T18:41:58.406Z,99.90
2019-05-29T18:44:47.581Z,99.90
2019-05-29T18:47:37.037Z,99.90
2019-05-29T18:50:25.892Z,99.90
2019-05-29T18:53:15.472Z,99.90
2019-05-29T18:56:04.529Z,99.90
2019-05-29T18:58:53.912Z,99.90
2019-05-29T19:01:42.981Z,99.90
2019-05-29T19:04:32.128Z,99.90
2019-05-29T19:07:21.609Z,99.90
2019-05-29T19:10:12.233Z,99.90
2019-05-29T19:13:01.488Z,99.90
2019-05-29T19:15:51.077Z,99.90
2019-05-29T19:18:40.423Z,99.90
2019-05-29T19:21:30.569Z,99.90
2019-05-29T19:24:20.308Z,99.90
2019-05-29T19:27:09.414Z,99.90
2019-05-29T19:29:58.638Z,99.90
2019-05-29T19:32:47.980Z,99.90
2019-05-29T19:35:37.283Z,99.90
2019-05-29T19:38:27.749Z,99.90
2019-05-29T19:41:17.624Z,99.90
2019-05-29T19:44:07.087Z,99.90
2019-05-29T19:46:56.587Z,99.90
2019-05-29T19:49:45.548Z,99.90
2019-05-29T19:52:35.311Z,99.90
2019-05-29T19:55:25.580Z,99.90
2019-05-29T19:58:14.920Z,99.90
2019-05-29T20:01:04.857Z,99.90
2019-05-29T20:03:53.717Z,99.90
2019-05-29T20:06:43.050Z,99.90
2019-05-29T20:09:32.221Z,99.90
2019-05-29T20:12:23.114Z,99.90
2019-05-29T20:15:12.901Z,99.90
2019-05-29T20:18:01.958Z,99.90
2019-05-29T20:20:51.097Z,99.90
2019-05-29T20:23:40.243Z,99.90
2019-05-29T20:26:30.917Z,99.90
2019-05-29T20:29:20.575Z,99.90
2019-05-29T20:32:10.050Z,99.90
2019-05-29T20:34:59.206Z,99.90
2019-05-29T20:37:48.174Z,99.90
2019-05-29T20:40:37.962Z,99.90
2019-05-29T20:43:29.132Z,99.90
2019-05-29T20:46:18.237Z,99.90
2019-05-29T20:49:07.180Z,99.90
2019-05-29T20:51:56.873Z,99.90
2019-05-29T20:54:46.285Z,99.90
2019-05-29T20:57:35.965Z,99.90
2019-05-29T21:00:25.847Z,99.90
2019-05-29T21:03:15.383Z,99.90
2019-05-29T21:06:06.045Z,99.90
2019-05-29T21:08:55.279Z,99.90
2019-05-29T21:11:44.846Z,99.90
2019-05-29T21:14:35.516Z,99.90
2019-05-29T21:17:24.653Z,99.90
2019-05-29T21:20:14.489Z,99.90
2019-05-29T21:23:03.732Z,99.90
2019-05-29T21:25:53.126Z,99.90
2019-05-29T21:28:46.804Z,99.90
2019-05-29T21:31:32.590Z,99.90
2019-05-29T21:34:21.721Z,99.90
2019-05-29T21:37:10.923Z,99.90
2019-05-29T21:40:00.504Z,99.90
2019-05-29T21:42:49.729Z,99.90
2019-05-29T21:45:38.756Z,99.90
2019-05-29T21:48:27.680Z,99.90
2019-05-29T21:51:16.521Z,99.90
2019-05-29T21:54:06.026Z,99.90
2019-05-29T21:56:55.310Z,99.90
2019-05-29T21:59:44.138Z,99.90
2019-05-29T22:02:33.421Z,99.90
2019-05-29T22:05:22.974Z,99.90
2019-05-29T22:08:12.582Z,99.90
2019-05-29T22:11:01.855Z,99.90
2019-05-29T22:13:52.339Z,99.90
2019-05-29T22:16:42.130Z,99.90
2019-05-29T22:19:31.169Z,99.90
2019-05-29T22:22:20.500Z,99.90
2019-05-29T22:25:09.979Z,99.90
2019-05-29T22:27:59.591Z,99.90
2019-05-29T22:30:48.910Z,99.90
2019-05-29T22:33:38.368Z,99.90
2019-05-29T22:36:27.782Z,99.90
2019-05-29T22:39:17.217Z,99.90
2019-05-29T22:42:06.477Z,99.90
2019-05-29T22:44:55.699Z,99.90
2019-05-29T22:47:45.020Z,99.90
2019-05-29T22:50:34.056Z,99.90
2019-05-29T22:53:23.462Z,99.90
2019-05-29T22:56:11.911Z,99.90
2019-05-29T22:59:00.620Z,99.90
2019-05-29T23:01:49.739Z,99.90
2019-05-29T23:04:39.098Z,99.90
2019-05-29T23:07:28.621Z,99.90
2019-05-29T23:10:18.249Z,99.90
2019-05-29T23:13:07.386Z,99.90
2019-05-29T23:15:56.684Z,99.90
2019-05-29T23:18:46.386Z,99.90
2019-05-29T23:21:35.548Z,99.90
2019-05-29T23:24:24.497Z,99.90
2019-05-29T23:27:12.935Z,99.90
2019-05-29T23:30:01.640Z,99.90
2019-05-29T23:32:50.482Z,99.90
2019-05-29T23:35:40.554Z,99.90
2019-05-29T23:38:29.633Z,99.90
2019-05-29T23:41:18.582Z,99.90
2019-05-29T23:44:07.948Z,99.90
2019-05-29T23:46:57.529Z,99.90
2019-05-29T23:49:47.399Z,99.90
2019-05-29T23:52:36.357Z,99.90
2019-05-29T23:55:25.448Z,99.90
2019-05-29T23:58:14.604Z,99.90
